createdAt,value
2023-03-17T00:00:49.267Z,13.80
2023-03-17T00:03:30.531Z,13.80
2023-03-17T00:06:00.883Z,13.80
2023-03-17T00:08:32.521Z,13.80
2023-03-17T00:11:01.310Z,13.80
2023-03-17T00:13:31.645Z,13.70
2023-03-17T00:16:06.070Z,13.70
2023-03-17T00:18:36.276Z,13.70
2023-03-17T00:21:05.640Z,13.70
2023-03-17T00:23:36.112Z,13.60
2023-03-17T00:26:04.632Z,13.70
2023-03-17T00:28:33.087Z,13.70
2023-03-17T00:31:04.064Z,13.80
2023-03-17T00:33:35.360Z,13.80
2023-03-17T00:36:03.928Z,13.70
2023-03-17T00:38:32.379Z,13.60
2023-03-17T00:41:01.003Z,13.60
2023-03-17T00:43:30.668Z,13.50
2023-03-17T00:45:59.298Z,13.60
2023-03-17T00:48:30.804Z,13.50
2023-03-17T00:50:59.414Z,13.50
2023-03-17T00:53:27.894Z,13.40
2023-03-17T00:55:57.231Z,13.50
2023-03-17T00:58:34.988Z,13.40
2023-03-17T01:01:03.849Z,13.40
2023-03-17T01:03:33.848Z,13.30
2023-03-17T01:06:04.298Z,13.30
2023-03-17T01:08:32.874Z,13.20
2023-03-17T01:11:02.793Z,13.20
2023-03-17T01:13:31.225Z,13.10
2023-03-17T01:15:59.788Z,13.10
2023-03-17T01:18:28.339Z,13.00
2023-03-17T01:20:56.923Z,12.90
2023-03-17T01:23:25.389Z,13.00
2023-03-17T01:25:53.776Z,12.90
2023-03-17T01:28:22.971Z,12.80
2023-03-17T01:30:51.892Z,12.80
2023-03-17T01:33:20.389Z,12.70
2023-03-17T01:35:48.915Z,12.60
2023-03-17T01:38:18.322Z,12.60
2023-03-17T01:40:52.043Z,12.50
2023-03-17T01:43:31.767Z,12.40
2023-03-17T01:46:28.367Z,12.40
2023-03-17T01:49:20.750Z,12.30
2023-03-17T01:52:07.020Z,12.30
2023-03-17T01:54:35.623Z,12.20
2023-03-17T01:57:54.294Z,12.20
2023-03-17T02:00:25.408Z,12.00
2023-03-17T02:02:56.389Z,11.90
2023-03-17T02:05:28.208Z,11.90
2023-03-17T02:07:57.733Z,11.90
2023-03-17T02:10:29.497Z,11.90
2023-03-17T02:13:04.722Z,11.70
2023-03-17T02:15:59.409Z,11.60
2023-03-17T02:18:27.993Z,11.50
2023-03-17T02:21:00.136Z,11.50
2023-03-17T02:23:29.045Z,11.50
2023-03-17T02:25:57.759Z,11.50
2023-03-17T02:28:31.293Z,11.30
2023-03-17T02:30:59.746Z,11.30
2023-03-17T02:33:28.595Z,11.30
2023-03-17T02:35:57.937Z,11.30
2023-03-17T02:38:26.884Z,11.20
2023-03-17T02:40:55.349Z,11.10
2023-03-17T02:43:23.854Z,11.00
2023-03-17T02:45:52.319Z,11.00
2023-03-17T02:48:20.862Z,11.00
2023-03-17T02:50:49.334Z,11.00
2023-03-17T02:53:17.716Z,10.90
2023-03-17T02:55:46.184Z,10.80
2023-03-17T02:58:14.628Z,10.70
2023-03-17T03:00:43.101Z,10.60
2023-03-17T03:03:11.531Z,10.60
2023-03-17T03:05:40.283Z,10.60
2023-03-17T03:08:08.684Z,10.60
2023-03-17T03:10:37.261Z,10.60
2023-03-17T03:13:05.958Z,10.50
2023-03-17T03:15:34.485Z,10.40
2023-03-17T03:18:03.184Z,10.30
2023-03-17T03:20:31.883Z,10.40
2023-03-17T03:23:00.761Z,10.40
2023-03-17T03:25:29.638Z,10.40
2023-03-17T03:27:58.339Z,10.40
2023-03-17T03:30:27.864Z,10.40
2023-03-17T03:32:56.317Z,10.30
2023-03-17T03:35:24.773Z,10.30
2023-03-17T03:37:53.278Z,10.30
2023-03-17T03:40:21.815Z,10.30
2023-03-17T03:42:50.970Z,10.30
2023-03-17T03:45:19.952Z,10.40
2023-03-17T03:47:48.621Z,10.30
2023-03-17T03:50:17.652Z,10.30
2023-03-17T03:52:46.315Z,10.30
2023-03-17T03:55:14.723Z,10.30
2023-03-17T03:57:43.274Z,10.30
2023-03-17T04:00:14.937Z,10.40
2023-03-17T04:02:45.825Z,10.30
2023-03-17T04:05:21.656Z,10.30
2023-03-17T04:07:50.188Z,10.30
2023-03-17T04:10:18.989Z,10.30
2023-03-17T04:12:47.802Z,10.30
2023-03-17T04:15:18.511Z,10.20
2023-03-17T04:17:47.874Z,10.20
2023-03-17T04:20:17.867Z,10.30
2023-03-17T04:22:46.899Z,10.20
2023-03-17T04:25:16.955Z,10.20
2023-03-17T04:27:46.149Z,10.20
2023-03-17T04:30:15.536Z,10.20
2023-03-17T04:32:44.918Z,10.20
2023-03-17T04:35:19.631Z,10.20
2023-03-17T04:37:49.408Z,10.20
2023-03-17T04:40:19.555Z,10.20
2023-03-17T04:42:48.045Z,10.20
2023-03-17T04:45:17.504Z,10.20
2023-03-17T04:47:48.935Z,10.20
2023-03-17T04:50:18.732Z,10.20
2023-03-17T04:52:47.235Z,10.10
2023-03-17T04:55:15.669Z,10.10
2023-03-17T04:57:45.334Z,10.10
2023-03-17T05:00:16.300Z,10.20
2023-03-17T05:02:45.439Z,10.20
2023-03-17T05:05:14.477Z,10.10
2023-03-17T05:07:42.951Z,10.20
2023-03-17T05:10:13.131Z,10.20
2023-03-17T05:12:41.688Z,10.20
2023-03-17T05:15:10.968Z,10.20
2023-03-17T05:17:39.408Z,10.10
2023-03-17T05:20:09.491Z,10.20
2023-03-17T05:22:38.503Z,10.10
2023-03-17T05:25:07.599Z,10.10
2023-03-17T05:27:36.284Z,10.10
2023-03-17T05:30:05.765Z,10.10
2023-03-17T05:32:34.200Z,10.10
2023-03-17T05:35:02.983Z,10.10
2023-03-17T05:37:31.418Z,10.10
2023-03-17T05:40:00.311Z,10.10
2023-03-17T05:42:29.221Z,10.10
2023-03-17T05:44:57.874Z,10.10
2023-03-17T05:47:26.368Z,9.90
2023-03-17T05:49:54.907Z,9.90
2023-03-17T05:52:23.509Z,9.90
2023-03-17T05:54:53.154Z,9.90
2023-03-17T05:57:21.860Z,9.80
2023-03-17T05:59:51.655Z,9.90
2023-03-17T06:02:20.089Z,9.80
2023-03-17T06:04:48.791Z,9.80
2023-03-17T06:07:17.488Z,9.80
2023-03-17T06:09:45.887Z,9.90
2023-03-17T06:12:14.744Z,9.90
2023-03-17T06:14:43.275Z,9.80
2023-03-17T06:17:13.257Z,9.70
2023-03-17T06:19:42.391Z,9.70
2023-03-17T06:22:10.919Z,9.70
2023-03-17T06:24:39.328Z,9.70
2023-03-17T06:27:07.792Z,9.70
2023-03-17T06:29:36.295Z,9.50
2023-03-17T06:32:19.204Z,9.60
2023-03-17T06:34:49.114Z,9.50
2023-03-17T06:37:17.974Z,9.50
2023-03-17T06:39:47.216Z,9.40
2023-03-17T06:42:15.969Z,9.50
2023-03-17T06:44:44.360Z,9.50
2023-03-17T06:47:13.017Z,9.50
2023-03-17T06:49:41.826Z,9.40
2023-03-17T06:52:10.380Z,9.60
2023-03-17T06:54:39.314Z,9.60
2023-03-17T06:57:07.798Z,9.40
2023-03-17T06:59:36.759Z,9.30
2023-03-17T07:02:06.434Z,9.20
2023-03-17T07:04:39.169Z,9.30
2023-03-17T07:07:07.951Z,9.30
2023-03-17T07:09:36.543Z,9.20
2023-03-17T07:12:08.237Z,9.30
2023-03-17T07:14:38.028Z,9.30
2023-03-17T07:17:07.635Z,9.10
2023-03-17T07:19:36.159Z,9.10
2023-03-17T07:22:04.725Z,9.10
2023-03-17T07:24:33.627Z,9.10
2023-03-17T07:27:02.146Z,9.00
2023-03-17T07:29:30.675Z,9.10
2023-03-17T07:31:59.463Z,9.00
2023-03-17T07:34:28.986Z,9.10
2023-03-17T07:36:57.418Z,9.10
2023-03-17T07:39:25.922Z,9.00
2023-03-17T07:41:56.065Z,9.00
2023-03-17T07:44:25.563Z,8.90
2023-03-17T07:46:54.282Z,8.90
2023-03-17T07:49:38.382Z,9.00
2023-03-17T07:52:11.244Z,8.90
2023-03-17T07:54:42.760Z,9.00
2023-03-17T07:57:12.491Z,9.20
2023-03-17T07:59:42.398Z,8.90
2023-03-17T08:02:17.281Z,8.90
2023-03-17T08:04:46.446Z,8.80
2023-03-17T08:07:16.439Z,9.00
2023-03-17T08:09:44.886Z,9.20
2023-03-17T08:12:13.356Z,8.90
2023-03-17T08:14:42.364Z,8.90
2023-03-17T08:17:11.567Z,8.90
2023-03-17T08:19:40.144Z,8.70
2023-03-17T08:22:09.376Z,8.90
2023-03-17T08:24:39.134Z,8.80
2023-03-17T08:27:08.735Z,8.80
2023-03-17T08:29:37.135Z,8.80
2023-03-17T08:32:05.682Z,9.20
2023-03-17T08:34:34.375Z,8.90
2023-03-17T08:37:03.556Z,8.90
2023-03-17T08:39:32.985Z,8.90
2023-03-17T08:42:01.526Z,8.90
2023-03-17T08:44:29.972Z,8.90
2023-03-17T08:46:58.760Z,9.20
2023-03-17T08:49:28.504Z,9.00
2023-03-17T08:51:56.925Z,9.00
2023-03-17T08:54:25.321Z,9.00
2023-03-17T08:56:54.315Z,8.90
2023-03-17T08:59:22.712Z,9.00
2023-03-17T09:01:51.348Z,8.90
2023-03-17T09:04:19.863Z,8.90
2023-03-17T09:07:02.371Z,8.90
2023-03-17T09:09:32.982Z,9.20
2023-03-17T09:12:01.475Z,8.90
2023-03-17T09:14:35.263Z,8.80
2023-03-17T09:17:12.253Z,8.90
2023-03-17T09:19:41.160Z,8.90
2023-03-17T09:22:13.065Z,8.80
2023-03-17T09:24:42.071Z,8.80
2023-03-17T09:27:10.556Z,8.70
2023-03-17T09:29:39.380Z,8.80
2023-03-17T09:32:09.512Z,8.80
2023-03-17T09:34:38.168Z,8.90
2023-03-17T09:37:06.666Z,8.80
2023-03-17T09:39:35.082Z,8.80
2023-03-17T09:42:35.955Z,8.80
2023-03-17T09:45:27.507Z,8.80
2023-03-17T09:48:17.799Z,8.80
2023-03-17T09:51:02.977Z,8.80
2023-03-17T09:53:39.908Z,8.80
2023-03-17T09:56:13.628Z,8.80
2023-03-17T09:58:51.142Z,8.70
2023-03-17T10:01:19.799Z,8.60
2023-03-17T10:03:48.893Z,8.50
2023-03-17T10:06:34.498Z,8.40
2023-03-17T10:09:27.442Z,8.50
2023-03-17T10:12:11.188Z,8.50
2023-03-17T10:14:53.336Z,8.40
2023-03-17T10:17:24.642Z,8.30
2023-03-17T10:20:09.648Z,8.40
2023-03-17T10:22:58.877Z,8.30
2023-03-17T10:25:34.654Z,8.30
2023-03-17T10:28:12.282Z,8.30
2023-03-17T10:30:40.965Z,8.30
2023-03-17T10:33:09.407Z,8.20
2023-03-17T10:35:40.219Z,8.20
2023-03-17T10:38:23.530Z,8.10
2023-03-17T10:41:01.235Z,8.20
2023-03-17T10:43:32.443Z,8.10
2023-03-17T10:46:06.400Z,8.10
2023-03-17T10:48:39.959Z,7.90
2023-03-17T10:51:12.564Z,7.90
2023-03-17T10:53:46.254Z,7.90
2023-03-17T10:56:27.559Z,7.80
2023-03-17T10:58:57.768Z,7.70
2023-03-17T11:01:39.423Z,7.60
2023-03-17T11:04:40.358Z,7.50
2023-03-17T11:07:16.984Z,7.30
2023-03-17T11:09:51.468Z,7.20
2023-03-17T11:12:41.344Z,7.10
2023-03-17T11:15:18.841Z,7.00
2023-03-17T11:17:59.049Z,6.90
2023-03-17T11:20:51.459Z,6.90
2023-03-17T11:23:48.591Z,6.70
2023-03-17T11:26:20.368Z,6.80
2023-03-17T11:29:09.814Z,6.90
2023-03-17T11:32:19.722Z,6.80
2023-03-17T11:34:57.610Z,6.60
2023-03-17T11:37:51.024Z,6.50
2023-03-17T11:40:41.019Z,6.50
2023-03-17T11:43:21.228Z,6.60
2023-03-17T11:45:58.812Z,6.60
2023-03-17T11:48:33.378Z,6.60
2023-03-17T11:51:28.404Z,6.60
2023-03-17T11:54:11.820Z,6.50
2023-03-17T11:56:57.266Z,6.40
2023-03-17T11:59:29.760Z,6.60
2023-03-17T12:02:21.525Z,6.50
2023-03-17T12:05:07.136Z,6.80
2023-03-17T12:07:54.085Z,6.60
2023-03-17T12:10:23.761Z,6.70
2023-03-17T12:12:57.499Z,6.80
2023-03-17T12:15:39.894Z,6.80
2023-03-17T12:18:33.980Z,6.60
2023-03-17T12:21:15.940Z,6.90
2023-03-17T12:23:57.467Z,6.60
2023-03-17T12:26:38.241Z,6.40
2023-03-17T12:29:38.578Z,6.30
2023-03-17T12:32:13.494Z,6.30
2023-03-17T12:34:56.978Z,6.20
2023-03-17T12:37:28.680Z,6.10
2023-03-17T12:40:19.585Z,6.00
2023-03-17T12:43:16.574Z,5.60
2023-03-17T12:46:00.072Z,5.40
2023-03-17T12:48:55.923Z,5.60
2023-03-17T12:51:49.684Z,5.60
2023-03-17T12:54:37.348Z,5.60
2023-03-17T12:57:30.790Z,5.00
2023-03-17T13:00:30.418Z,5.20
2023-03-17T13:03:24.349Z,5.30
2023-03-17T13:06:22.045Z,5.00
2023-03-17T13:08:53.167Z,5.20
2023-03-17T13:11:50.856Z,5.00
2023-03-17T13:14:38.825Z,5.00
2023-03-17T13:17:29.935Z,4.90
2023-03-17T13:20:13.468Z,4.40
2023-03-17T13:23:11.617Z,4.70
2023-03-17T13:25:40.073Z,5.00
2023-03-17T13:28:14.744Z,5.20
2023-03-17T13:30:50.262Z,5.30
2023-03-17T13:33:24.527Z,5.30
2023-03-17T13:36:06.761Z,5.40
2023-03-17T13:39:19.210Z,5.30
2023-03-17T13:42:05.526Z,5.60
2023-03-17T13:45:14.032Z,5.30
2023-03-17T13:47:43.690Z,5.00
2023-03-17T13:50:22.975Z,5.00
2023-03-17T13:53:09.444Z,5.00
2023-03-17T13:55:43.439Z,4.90
2023-03-17T13:58:12.318Z,4.70
2023-03-17T14:00:46.154Z,4.60
2023-03-17T14:03:19.654Z,5.00
2023-03-17T14:05:52.770Z,4.60
2023-03-17T14:08:38.687Z,4.30
2023-03-17T14:11:38.901Z,4.60
2023-03-17T14:14:15.253Z,4.40
2023-03-17T14:17:10.911Z,4.30
2023-03-17T14:19:42.317Z,4.30
2023-03-17T14:22:24.184Z,4.40
2023-03-17T14:24:57.358Z,4.30
2023-03-17T14:27:27.251Z,4.30
2023-03-17T14:29:56.039Z,4.30
2023-03-17T14:32:26.468Z,4.50
2023-03-17T14:35:01.316Z,4.70
2023-03-17T14:37:30.008Z,4.90
2023-03-17T14:40:00.234Z,5.30
2023-03-17T14:42:32.463Z,5.10
2023-03-17T14:45:06.885Z,5.50
2023-03-17T14:47:44.200Z,5.50
2023-03-17T14:50:38.848Z,5.60
2023-03-17T14:53:11.019Z,5.80
2023-03-17T14:55:43.677Z,5.90
2023-03-17T14:58:25.559Z,6.10
2023-03-17T15:01:08.030Z,6.20
2023-03-17T15:03:41.538Z,6.30
2023-03-17T15:06:28.717Z,6.40
2023-03-17T15:09:01.225Z,6.60
2023-03-17T15:11:44.299Z,6.90
2023-03-17T15:14:42.413Z,6.90
2023-03-17T15:17:23.701Z,7.10
2023-03-17T15:19:55.527Z,7.10
2023-03-17T15:22:30.396Z,7.50
2023-03-17T15:25:21.094Z,7.70
2023-03-17T15:27:49.868Z,8.00
2023-03-17T15:30:19.553Z,8.30
2023-03-17T15:32:53.685Z,8.50
2023-03-17T15:35:22.148Z,8.90
2023-03-17T15:37:50.541Z,9.20
2023-03-17T15:40:19.482Z,9.30
2023-03-17T15:42:48.111Z,9.40
2023-03-17T15:45:18.206Z,9.70
2023-03-17T15:47:48.336Z,9.80
2023-03-17T15:50:22.724Z,10.00
2023-03-17T15:52:54.612Z,10.00
2023-03-17T15:55:30.980Z,10.10
2023-03-17T15:58:00.182Z,10.40
2023-03-17T16:00:30.677Z,10.80
2023-03-17T16:03:05.358Z,10.90
2023-03-17T16:05:37.484Z,10.70
2023-03-17T16:08:06.133Z,11.30
2023-03-17T16:10:34.882Z,11.30
2023-03-17T16:13:03.402Z,11.40
2023-03-17T16:15:36.437Z,11.60
2023-03-17T16:18:12.792Z,12.20
2023-03-17T16:20:50.332Z,12.70
2023-03-17T16:23:28.807Z,12.50
2023-03-17T16:26:11.778Z,12.20
2023-03-17T16:28:42.852Z,12.80
2023-03-17T16:31:22.425Z,12.40
2023-03-17T16:33:53.459Z,12.80
2023-03-17T16:36:24.054Z,12.70
2023-03-17T16:38:53.064Z,12.90
2023-03-17T16:41:24.953Z,12.60
2023-03-17T16:44:01.994Z,12.60
2023-03-17T16:46:35.602Z,12.40
2023-03-17T16:49:04.989Z,12.50
2023-03-17T16:51:33.428Z,13.00
2023-03-17T16:54:01.830Z,13.40
2023-03-17T16:56:30.977Z,13.90
2023-03-17T16:58:59.464Z,13.20
2023-03-17T17:01:29.697Z,13.90
2023-03-17T17:03:58.650Z,14.30
2023-03-17T17:06:27.265Z,14.60
2023-03-17T17:08:55.829Z,13.70
2023-03-17T17:11:24.236Z,13.10
2023-03-17T17:13:53.329Z,13.40
2023-03-17T17:16:33.067Z,13.10
2023-03-17T17:19:02.639Z,13.80
2023-03-17T17:21:32.715Z,14.00
2023-03-17T17:24:01.453Z,14.00
2023-03-17T17:26:30.020Z,13.20
2023-03-17T17:28:58.408Z,12.70
2023-03-17T17:31:27.285Z,13.40
2023-03-17T17:33:55.667Z,14.20
2023-03-17T17:36:26.234Z,14.60
2023-03-17T17:38:54.702Z,14.30
2023-03-17T17:41:23.156Z,14.00
2023-03-17T17:43:51.902Z,14.10
2023-03-17T17:46:23.270Z,14.60
2023-03-17T17:48:51.774Z,14.10
2023-03-17T17:51:20.279Z,14.20
2023-03-17T17:53:48.712Z,14.10
2023-03-17T17:56:18.665Z,14.30
2023-03-17T17:58:48.495Z,14.80
2023-03-17T18:01:20.760Z,14.40
2023-03-17T18:03:49.655Z,13.70
2023-03-17T18:06:19.348Z,14.50
2023-03-17T18:08:48.216Z,14.30
2023-03-17T18:11:16.632Z,14.80
2023-03-17T18:13:45.135Z,15.10
2023-03-17T18:16:20.634Z,15.50
2023-03-17T18:18:49.103Z,15.40
2023-03-17T18:21:18.235Z,15.00
2023-03-17T18:23:50.784Z,14.60
2023-03-17T18:26:20.988Z,15.20
2023-03-17T18:28:50.225Z,15.50
2023-03-17T18:31:35.813Z,16.90
2023-03-17T18:34:12.330Z,15.50
2023-03-17T18:36:41.677Z,15.20
2023-03-17T18:39:10.136Z,14.60
2023-03-17T18:41:39.223Z,15.00
2023-03-17T18:44:08.402Z,15.50
2023-03-17T18:46:39.777Z,15.40
2023-03-17T18:49:10.209Z,16.00
2023-03-17T18:51:38.680Z,15.50
2023-03-17T18:54:07.441Z,15.40
2023-03-17T18:56:35.930Z,15.50
2023-03-17T18:59:04.385Z,15.10
2023-03-17T19:01:33.296Z,15.10
2023-03-17T19:04:02.468Z,15.40
2023-03-17T19:06:31.432Z,15.70
2023-03-17T19:09:00.279Z,16.20
2023-03-17T19:11:28.871Z,16.50
2023-03-17T19:13:59.064Z,16.60
2023-03-17T19:16:29.766Z,16.20
2023-03-17T19:18:59.604Z,16.70
2023-03-17T19:21:29.309Z,16.90
2023-03-17T19:24:01.446Z,17.20
2023-03-17T19:26:31.246Z,15.90
2023-03-17T19:28:59.658Z,15.90
2023-03-17T19:31:28.250Z,15.80
2023-03-17T19:33:56.812Z,16.30
2023-03-17T19:36:25.510Z,16.30
2023-03-17T19:38:53.942Z,16.40
2023-03-17T19:41:22.334Z,16.90
2023-03-17T19:43:50.788Z,17.30
2023-03-17T19:46:19.266Z,16.90
2023-03-17T19:48:47.712Z,17.00
2023-03-17T19:51:16.406Z,17.60
2023-03-17T19:53:44.851Z,17.80
2023-03-17T19:56:13.284Z,17.90
2023-03-17T19:58:41.709Z,17.50
2023-03-17T20:01:10.569Z,17.60
2023-03-17T20:03:43.802Z,17.50
2023-03-17T20:06:13.960Z,17.60
2023-03-17T20:08:45.849Z,17.60
2023-03-17T20:11:14.774Z,17.80
2023-03-17T20:13:43.931Z,17.10
2023-03-17T20:16:13.774Z,17.90
2023-03-17T20:18:42.295Z,16.70
2023-03-17T20:21:14.169Z,16.30
2023-03-17T20:23:42.854Z,16.10
2023-03-17T20:26:11.628Z,16.10
2023-03-17T20:28:40.047Z,16.10
2023-03-17T20:31:08.863Z,15.80
2023-03-17T20:33:37.825Z,15.90
2023-03-17T20:36:07.073Z,16.20
2023-03-17T20:38:37.780Z,16.10
2023-03-17T20:41:12.275Z,16.20
2023-03-17T20:43:41.518Z,16.40
2023-03-17T20:46:14.871Z,16.40
2023-03-17T20:48:44.112Z,16.60
2023-03-17T20:51:17.307Z,16.80
2023-03-17T20:53:50.620Z,16.40
2023-03-17T20:56:23.008Z,16.10
2023-03-17T20:58:53.953Z,15.80
2023-03-17T21:01:23.286Z,16.00
2023-03-17T21:03:53.968Z,16.10
2023-03-17T21:06:25.478Z,16.20
2023-03-17T21:08:54.561Z,16.30
2023-03-17T21:11:24.033Z,16.40
2023-03-17T21:13:52.714Z,16.40
2023-03-17T21:16:24.831Z,16.50
2023-03-17T21:18:53.762Z,16.70
2023-03-17T21:21:23.053Z,17.00
2023-03-17T21:23:52.351Z,17.00
2023-03-17T21:26:21.032Z,16.70
2023-03-17T21:28:49.657Z,16.80
2023-03-17T21:31:20.864Z,17.00
2023-03-17T21:33:51.268Z,16.60
2023-03-17T21:36:21.788Z,16.90
2023-03-17T21:38:50.331Z,16.40
2023-03-17T21:41:37.282Z,16.40
2023-03-17T21:44:07.308Z,16.50
2023-03-17T21:46:35.848Z,16.70
2023-03-17T21:49:04.578Z,16.60
2023-03-17T21:51:33.592Z,16.60
2023-03-17T21:54:02.923Z,16.70
2023-03-17T21:56:32.403Z,16.30
2023-03-17T21:59:00.981Z,16.50
2023-03-17T22:01:30.352Z,16.60
2023-03-17T22:04:00.450Z,16.70
2023-03-17T22:06:30.244Z,16.70
2023-03-17T22:08:58.697Z,16.70
2023-03-17T22:11:27.218Z,16.70
2023-03-17T22:13:55.612Z,16.80
2023-03-17T22:16:24.092Z,16.50
2023-03-17T22:18:52.710Z,16.40
2023-03-17T22:21:22.494Z,16.60
2023-03-17T22:23:51.584Z,16.70
2023-03-17T22:26:22.009Z,16.80
2023-03-17T22:28:51.220Z,16.90
2023-03-17T22:31:25.978Z,16.60
2023-03-17T22:33:57.051Z,16.70
2023-03-17T22:36:26.600Z,16.90
2023-03-17T22:38:55.672Z,16.80
2023-03-17T22:41:27.812Z,16.90
2023-03-17T22:43:57.370Z,17.10
2023-03-17T22:46:26.884Z,17.20
2023-03-17T22:48:55.350Z,17.10
2023-03-17T22:51:26.069Z,17.10
2023-03-17T22:53:55.414Z,17.10
2023-03-17T22:56:23.989Z,16.90
2023-03-17T22:58:52.711Z,16.90
2023-03-17T23:01:23.175Z,16.90
2023-03-17T23:03:51.759Z,16.60
2023-03-17T23:06:20.733Z,16.50
2023-03-17T23:08:49.212Z,16.50
2023-03-17T23:11:27.880Z,16.50
2023-03-17T23:13:56.734Z,16.40
2023-03-17T23:16:25.681Z,16.60
2023-03-17T23:18:54.156Z,16.60
2023-03-17T23:21:33.287Z,16.70
2023-03-17T23:24:02.866Z,16.80
2023-03-17T23:26:32.824Z,16.60
2023-03-17T23:29:01.558Z,16.50
2023-03-17T23:31:30.077Z,16.70
2023-03-17T23:33:59.005Z,16.90
2023-03-17T23:36:27.745Z,16.90
2023-03-17T23:38:57.350Z,16.80
2023-03-17T23:41:25.958Z,16.60
2023-03-17T23:43:54.683Z,16.50
2023-03-17T23:46:23.212Z,16.40
2023-03-17T23:48:51.618Z,16.40
2023-03-17T23:51:20.439Z,16.60
2023-03-17T23:53:48.966Z,16.70
2023-03-17T23:56:17.393Z,16.90
2023-03-17T23:58:46.508Z,16.90
